createdAt,value
2023-08-11T00:02:12.742Z,2.97
2023-08-11T00:04:40.189Z,2.88
2023-08-11T00:07:07.887Z,3.13
2023-08-11T00:09:35.560Z,2.85
2023-08-11T00:12:03.626Z,3.25
2023-08-11T00:14:31.280Z,3.45
2023-08-11T00:16:59.691Z,3.50
2023-08-11T00:19:27.167Z,4.13
2023-08-11T00:21:54.587Z,2.58
2023-08-11T00:24:21.955Z,2.92
2023-08-11T00:26:49.305Z,3.22
2023-08-11T00:29:17.015Z,2.90
2023-08-11T00:31:44.516Z,3.05
2023-08-11T00:34:12.291Z,3.13
2023-08-11T00:36:39.732Z,2.83
2023-08-11T00:39:07.212Z,3.22
2023-08-11T00:41:34.599Z,3.38
2023-08-11T00:44:02.272Z,2.63
2023-08-11T00:46:30.826Z,4.22
2023-08-11T00:48:58.294Z,3.67
2023-08-11T00:51:25.996Z,6.40
2023-08-11T00:53:53.383Z,4.43
2023-08-11T00:56:21.874Z,5.03
2023-08-11T00:58:50.455Z,5.30
2023-08-11T01:01:18.056Z,3.92
2023-08-11T01:03:48.923Z,4.45
2023-08-11T01:12:24.948Z,4.43
2023-08-11T01:17:30.855Z,4.00
2023-08-11T01:19:59.313Z,4.22
2023-08-11T01:22:29.769Z,4.13
2023-08-11T01:24:57.467Z,4.60
2023-08-11T01:27:26.044Z,4.43
2023-08-11T01:29:53.419Z,4.75
2023-08-11T01:32:20.804Z,3.97
2023-08-11T01:34:48.236Z,3.70
2023-08-11T01:37:15.612Z,3.75
2023-08-11T01:39:43.026Z,4.10
2023-08-11T01:42:11.499Z,6.03
2023-08-11T01:44:39.010Z,7.07
2023-08-11T01:47:07.618Z,6.60
2023-08-11T01:49:35.249Z,6.82
2023-08-11T01:52:04.749Z,6.05
2023-08-11T01:54:32.217Z,7.88
2023-08-11T01:56:59.904Z,6.93
2023-08-11T01:59:27.474Z,7.65
2023-08-11T02:01:54.897Z,7.68
2023-08-11T02:04:22.331Z,9.23
2023-08-11T02:06:50.525Z,10.77
2023-08-11T02:09:17.971Z,13.32
2023-08-11T02:11:45.382Z,15.23
2023-08-11T02:14:12.785Z,14.57
2023-08-11T02:16:40.359Z,14.45
2023-08-11T02:19:27.599Z,9.75
2023-08-11T02:21:54.845Z,8.82
2023-08-11T02:24:22.430Z,9.10
2023-08-11T02:26:50.179Z,8.55
2023-08-11T02:29:17.660Z,7.28
2023-08-11T02:31:45.475Z,7.03
2023-08-11T02:34:12.976Z,8.23
2023-08-11T02:36:40.790Z,7.15
2023-08-11T02:39:09.214Z,7.57
2023-08-11T02:41:36.754Z,7.40
2023-08-11T02:44:05.026Z,8.27
2023-08-11T02:46:32.733Z,8.15
2023-08-11T02:49:00.168Z,8.30
2023-08-11T02:51:27.630Z,8.27
2023-08-11T02:53:55.337Z,6.97
2023-08-11T02:56:22.881Z,8.25
2023-08-11T02:58:50.974Z,8.10
2023-08-11T03:01:19.160Z,7.85
2023-08-11T03:03:46.669Z,7.78
2023-08-11T03:06:14.530Z,7.95
2023-08-11T03:08:44.294Z,8.88
2023-08-11T03:11:12.107Z,9.00
2023-08-11T03:13:40.875Z,11.23
2023-08-11T03:16:08.943Z,13.20
2023-08-11T03:18:36.871Z,9.95
2023-08-11T03:21:18.885Z,8.70
2023-08-11T03:23:48.791Z,8.38
2023-08-11T03:26:16.602Z,9.75
2023-08-11T03:28:44.096Z,9.13
2023-08-11T03:31:12.106Z,10.52
2023-08-11T03:33:42.567Z,9.15
2023-08-11T03:36:14.345Z,9.35
2023-08-11T03:38:43.626Z,8.88
2023-08-11T03:41:12.031Z,9.65
2023-08-11T03:43:39.570Z,11.48
2023-08-11T03:46:07.315Z,9.93
2023-08-11T03:48:37.159Z,11.20
2023-08-11T03:51:04.985Z,10.38
2023-08-11T03:53:33.361Z,8.55
2023-08-11T03:56:01.114Z,7.72
2023-08-11T03:58:32.324Z,5.97
2023-08-11T04:00:59.891Z,5.28
2023-08-11T04:03:32.505Z,5.15
2023-08-11T04:06:00.962Z,4.97
2023-08-11T04:08:28.731Z,4.57
2023-08-11T04:10:57.195Z,4.38
2023-08-11T04:13:24.802Z,3.80
2023-08-11T04:15:53.016Z,4.05
2023-08-11T04:18:20.981Z,4.05
2023-08-11T04:20:48.948Z,4.20
2023-08-11T04:23:16.909Z,4.20
2023-08-11T04:25:44.750Z,4.18
2023-08-11T04:28:14.033Z,4.90
2023-08-11T04:30:41.979Z,3.88
2023-08-11T04:33:13.784Z,4.30
2023-08-11T04:35:43.116Z,4.40
2023-08-11T04:38:12.018Z,4.95
2023-08-11T04:40:40.529Z,4.15
2023-08-11T04:43:08.035Z,4.28
2023-08-11T04:45:39.797Z,3.75
2023-08-11T04:48:08.635Z,4.15
2023-08-11T04:50:38.563Z,3.90
2023-08-11T04:53:06.343Z,3.70
2023-08-11T04:55:34.522Z,4.00
2023-08-11T04:58:04.804Z,2.85
2023-08-11T05:00:32.440Z,3.20
2023-08-11T05:02:59.983Z,3.45
2023-08-11T05:05:27.812Z,3.42
2023-08-11T05:07:55.558Z,2.53
2023-08-11T05:10:23.311Z,3.70
2023-08-11T05:12:51.375Z,3.88
2023-08-11T05:15:19.460Z,3.38
2023-08-11T05:17:46.906Z,3.25
2023-08-11T05:20:16.518Z,3.08
2023-08-11T05:22:45.585Z,3.28
2023-08-11T05:25:13.204Z,2.80
2023-08-11T05:27:41.552Z,3.17
2023-08-11T05:30:09.911Z,2.97
2023-08-11T05:32:37.569Z,3.10
2023-08-11T05:35:05.428Z,3.63
2023-08-11T05:37:34.070Z,2.75
2023-08-11T05:40:01.614Z,3.35
2023-08-11T05:42:31.546Z,2.72
2023-08-11T05:44:59.318Z,3.10
2023-08-11T05:47:26.865Z,2.55
2023-08-11T05:49:54.961Z,3.13
2023-08-11T05:52:22.471Z,2.35
2023-08-11T05:54:50.003Z,3.55
2023-08-11T05:57:17.567Z,2.53
2023-08-11T05:59:45.163Z,3.13
2023-08-11T06:02:12.876Z,2.42
2023-08-11T06:04:40.709Z,2.70
2023-08-11T06:07:08.839Z,2.78
2023-08-11T06:09:36.677Z,2.60
2023-08-11T06:12:05.005Z,2.58
2023-08-11T06:14:32.819Z,3.13
2023-08-11T06:17:00.388Z,3.50
2023-08-11T06:19:27.980Z,2.63
2023-08-11T06:21:56.038Z,2.88
2023-08-11T06:24:24.630Z,2.50
2023-08-11T06:26:53.126Z,2.45
2023-08-11T06:29:21.181Z,2.92
2023-08-11T06:31:48.826Z,2.45
2023-08-11T06:34:19.703Z,3.17
2023-08-11T06:36:47.501Z,3.22
2023-08-11T06:39:15.059Z,3.00
2023-08-11T06:41:42.616Z,3.55
2023-08-11T06:44:10.493Z,2.90
2023-08-11T06:46:38.193Z,2.80
2023-08-11T06:49:06.205Z,2.83
2023-08-11T06:51:33.969Z,3.38
2023-08-11T06:54:01.662Z,3.13
2023-08-11T06:56:29.397Z,2.88
2023-08-11T06:58:57.115Z,3.47
2023-08-11T07:01:24.752Z,2.78
2023-08-11T07:03:52.805Z,2.47
2023-08-11T07:06:20.281Z,3.35
2023-08-11T07:08:50.387Z,3.42
2023-08-11T07:11:18.016Z,3.53
2023-08-11T07:13:45.852Z,3.60
2023-08-11T07:16:13.378Z,3.42
2023-08-11T07:18:40.920Z,3.28
2023-08-11T07:21:08.541Z,3.72
2023-08-11T07:23:36.149Z,3.45
2023-08-11T07:26:03.788Z,3.03
2023-08-11T07:28:31.365Z,3.13
2023-08-11T07:30:59.085Z,3.25
2023-08-11T07:33:27.111Z,3.35
2023-08-11T07:35:54.612Z,3.45
2023-08-11T07:38:22.084Z,3.22
2023-08-11T07:40:49.769Z,3.58
2023-08-11T07:43:17.421Z,3.70
2023-08-11T07:45:44.907Z,3.60
2023-08-11T07:48:13.074Z,3.50
2023-08-11T07:50:41.200Z,3.92
2023-08-11T07:53:08.836Z,4.32
2023-08-11T07:55:36.635Z,3.80
2023-08-11T07:58:04.728Z,3.40
2023-08-11T08:00:33.166Z,3.75
2023-08-11T08:03:01.182Z,3.35
2023-08-11T08:05:29.196Z,3.70
2023-08-11T08:07:57.302Z,3.40
2023-08-11T08:10:26.847Z,3.65
2023-08-11T08:12:54.593Z,3.83
2023-08-11T08:15:22.508Z,3.20
2023-08-11T08:17:50.459Z,3.28
2023-08-11T08:20:18.662Z,3.40
2023-08-11T08:22:46.490Z,3.38
2023-08-11T08:25:16.460Z,3.95
2023-08-11T08:27:45.990Z,3.65
2023-08-11T08:30:14.678Z,4.00
2023-08-11T08:32:43.899Z,4.30
2023-08-11T08:35:12.109Z,3.70
2023-08-11T08:37:40.062Z,3.40
2023-08-11T08:40:09.986Z,3.50
2023-08-11T08:42:37.846Z,4.57
2023-08-11T08:45:06.789Z,3.67
2023-08-11T08:47:36.443Z,3.25
2023-08-11T08:50:05.114Z,4.50
2023-08-11T08:52:34.698Z,3.50
2023-08-11T08:55:04.281Z,3.72
2023-08-11T08:57:34.077Z,3.40
2023-08-11T09:00:02.264Z,3.38
2023-08-11T09:02:34.489Z,4.38
2023-08-11T09:05:02.364Z,3.45
2023-08-11T09:07:32.793Z,3.97
2023-08-11T09:10:01.040Z,3.72
2023-08-11T09:12:31.751Z,4.47
2023-08-11T09:15:01.334Z,4.93
2023-08-11T09:17:32.325Z,3.92
2023-08-11T09:20:01.458Z,3.75
2023-08-11T09:25:02.738Z,4.15
2023-08-11T09:27:33.010Z,4.47
2023-08-11T09:30:01.484Z,4.70
2023-08-11T09:32:35.273Z,3.92
2023-08-11T09:35:09.818Z,4.13
2023-08-11T09:37:38.785Z,4.28
2023-08-11T09:40:08.185Z,3.83
2023-08-11T09:42:36.540Z,4.15
2023-08-11T09:45:05.858Z,3.13
2023-08-11T09:47:34.086Z,4.65
2023-08-11T09:50:02.367Z,4.15
2023-08-11T09:52:33.611Z,4.35
2023-08-11T09:55:02.298Z,4.28
2023-08-11T09:57:32.045Z,3.63
2023-08-11T10:00:00.707Z,4.65
2023-08-11T10:02:32.446Z,3.55
2023-08-11T10:05:10.655Z,3.65
2023-08-11T10:07:42.405Z,3.85
2023-08-11T10:10:16.106Z,3.78
2023-08-11T10:13:03.121Z,3.88
2023-08-11T10:15:33.022Z,4.40
2023-08-11T10:18:03.655Z,4.43
2023-08-11T10:20:32.842Z,4.15
2023-08-11T10:23:03.355Z,5.00
2023-08-11T10:25:31.980Z,3.42
2023-08-11T10:28:00.454Z,4.65
2023-08-11T10:30:28.730Z,4.05
2023-08-11T10:33:11.278Z,3.50
2023-08-11T10:38:29.661Z,4.13
2023-08-11T10:41:05.874Z,3.97
2023-08-11T10:43:36.064Z,3.80
2023-08-11T10:49:00.559Z,3.90
2023-08-11T10:51:38.925Z,4.38
2023-08-11T10:56:47.828Z,3.83
2023-08-11T10:59:19.473Z,3.50
2023-08-11T11:01:50.274Z,3.85
2023-08-11T11:04:20.902Z,3.95
2023-08-11T11:06:51.038Z,3.30
2023-08-11T11:09:22.453Z,3.60
2023-08-11T11:11:54.159Z,3.20
2023-08-11T11:14:23.250Z,3.65
2023-08-11T11:16:52.948Z,3.92
2023-08-11T11:19:25.748Z,3.72
2023-08-11T11:21:55.660Z,3.63
2023-08-11T11:24:24.852Z,3.38
2023-08-11T11:26:54.402Z,3.65
2023-08-11T11:29:25.895Z,3.88
2023-08-11T11:31:55.978Z,4.35
2023-08-11T11:34:28.845Z,3.97
2023-08-11T11:36:58.441Z,3.90
2023-08-11T11:39:31.075Z,3.97
2023-08-11T11:42:08.543Z,3.80
2023-08-11T11:44:38.229Z,4.03
2023-08-11T11:47:07.885Z,4.03
2023-08-11T11:49:37.742Z,3.85
2023-08-11T11:52:07.688Z,4.05
2023-08-11T11:54:36.951Z,3.92
2023-08-11T11:57:09.901Z,3.70
2023-08-11T11:59:43.804Z,3.97
2023-08-11T12:02:15.155Z,4.47
2023-08-11T12:04:47.416Z,4.30
2023-08-11T12:07:38.447Z,3.92
2023-08-11T12:10:09.541Z,4.00
2023-08-11T12:12:40.093Z,3.53
2023-08-11T12:15:13.030Z,4.15
2023-08-11T12:17:43.455Z,4.22
2023-08-11T12:20:14.732Z,5.13
2023-08-11T12:22:44.870Z,4.57
2023-08-11T12:25:17.533Z,4.07
2023-08-11T12:27:50.158Z,4.25
2023-08-11T12:30:21.422Z,4.55
2023-08-11T12:32:51.587Z,4.47
2023-08-11T12:35:22.001Z,4.22
2023-08-11T12:37:55.986Z,5.03
2023-08-11T12:40:29.441Z,4.00
2023-08-11T12:43:03.514Z,4.55
2023-08-11T12:45:32.755Z,4.28
2023-08-11T12:48:05.939Z,4.80
2023-08-11T12:50:38.338Z,4.70
2023-08-11T12:53:07.768Z,4.45
2023-08-11T12:55:39.192Z,4.22
2023-08-11T12:58:09.077Z,4.82
2023-08-11T13:00:40.480Z,4.07
2023-08-11T13:03:12.917Z,4.10
2023-08-11T13:05:48.807Z,4.20
2023-08-11T13:08:20.081Z,4.38
2023-08-11T13:10:52.000Z,4.10
2023-08-11T13:13:24.205Z,4.45
2023-08-11T13:15:53.821Z,4.65
2023-08-11T13:18:23.577Z,4.25
2023-08-11T13:20:53.445Z,4.55
2023-08-11T13:23:22.538Z,4.82
2023-08-11T13:25:52.125Z,4.82
2023-08-11T13:28:24.945Z,4.57
2023-08-11T13:30:57.627Z,4.30
2023-08-11T13:33:26.822Z,4.70
2023-08-11T13:35:56.764Z,4.10
2023-08-11T13:38:28.490Z,4.13
2023-08-11T13:41:01.630Z,5.07
2023-08-11T13:43:36.054Z,4.80
2023-08-11T13:46:05.515Z,4.45
2023-08-11T13:48:34.277Z,4.55
2023-08-11T13:51:03.050Z,4.80
2023-08-11T13:53:31.843Z,5.35
2023-08-11T13:56:01.936Z,5.45
2023-08-11T13:58:36.959Z,4.18
2023-08-11T14:01:07.653Z,4.45
2023-08-11T14:03:37.908Z,4.32
2023-08-11T14:06:06.982Z,4.78
2023-08-11T14:08:37.661Z,4.68
2023-08-11T14:11:09.149Z,5.35
2023-08-11T14:13:38.050Z,4.43
2023-08-11T14:16:06.615Z,4.13
2023-08-11T14:18:35.902Z,4.60
2023-08-11T14:21:10.115Z,5.45
2023-08-11T14:23:39.012Z,4.75
2023-08-11T14:26:08.470Z,5.00
2023-08-11T14:28:37.900Z,5.45
2023-08-11T14:31:08.737Z,4.55
2023-08-11T14:33:38.130Z,5.82
2023-08-11T14:36:13.049Z,5.05
2023-08-11T14:38:42.864Z,5.15
2023-08-11T14:41:11.711Z,5.07
2023-08-11T14:43:40.573Z,4.90
2023-08-11T14:46:11.211Z,4.70
2023-08-11T14:48:40.475Z,4.90
2023-08-11T14:51:09.447Z,5.43
2023-08-11T14:53:38.678Z,5.15
2023-08-11T14:56:08.652Z,4.70
2023-08-11T14:58:37.950Z,5.07
2023-08-11T15:01:08.852Z,4.70
2023-08-11T15:03:39.325Z,5.47
2023-08-11T15:06:08.500Z,5.03
2023-08-11T15:08:37.648Z,5.13
2023-08-11T15:11:08.892Z,5.50
2023-08-11T15:13:38.523Z,5.63
2023-08-11T15:16:09.942Z,5.10
2023-08-11T15:18:41.789Z,5.40
2023-08-11T15:21:12.351Z,4.50
2023-08-11T15:23:42.641Z,4.53
2023-08-11T15:26:12.224Z,5.32
2023-08-11T15:28:41.635Z,5.00
2023-08-11T15:31:13.902Z,4.40
2023-08-11T15:33:45.373Z,5.60
2023-08-11T15:36:14.633Z,5.10
2023-08-11T15:38:45.963Z,5.75
2023-08-11T15:41:17.622Z,5.38
2023-08-11T15:43:47.621Z,5.93
2023-08-11T15:46:16.710Z,4.47
2023-08-11T15:48:46.556Z,5.03
2023-08-11T15:51:15.630Z,5.32
2023-08-11T15:53:44.799Z,5.35
2023-08-11T15:56:14.116Z,4.40
2023-08-11T15:58:43.266Z,5.28
2023-08-11T16:01:12.717Z,4.80
2023-08-11T16:03:42.371Z,5.20
2023-08-11T16:06:11.682Z,4.95
2023-08-11T16:08:41.828Z,5.50
2023-08-11T16:11:12.057Z,4.95
2023-08-11T16:13:44.438Z,5.63
2023-08-11T16:16:13.427Z,4.80
2023-08-11T16:18:43.190Z,4.72
2023-08-11T16:21:13.337Z,4.72
2023-08-11T16:23:42.574Z,4.72
2023-08-11T16:26:14.269Z,5.10
2023-08-11T16:28:45.713Z,4.65
2023-08-11T16:31:16.660Z,4.90
2023-08-11T16:33:45.792Z,4.63
2023-08-11T16:36:14.922Z,4.53
2023-08-11T16:38:44.144Z,4.78
2023-08-11T16:41:15.560Z,4.63
2023-08-11T16:43:45.234Z,4.88
2023-08-11T16:46:18.117Z,4.90
2023-08-11T16:48:48.633Z,4.15
2023-08-11T16:51:18.235Z,5.30
2023-08-11T16:53:47.725Z,4.88
2023-08-11T16:56:18.920Z,4.75
2023-08-11T16:58:48.376Z,4.65
2023-08-11T17:01:19.253Z,4.55
2023-08-11T17:03:49.000Z,5.07
2023-08-11T17:06:21.317Z,4.13
2023-08-11T17:08:52.100Z,5.15
2023-08-11T17:11:23.222Z,4.47
2023-08-11T17:13:53.392Z,3.78
2023-08-11T17:16:23.767Z,4.80
2023-08-11T17:18:52.741Z,3.95
2023-08-11T17:21:23.424Z,3.78
2023-08-11T17:23:56.433Z,3.35
2023-08-11T17:26:26.409Z,4.20
2023-08-11T17:28:56.718Z,3.95
2023-08-11T17:31:26.123Z,3.83
2023-08-11T17:33:55.479Z,3.92
2023-08-11T17:36:27.917Z,3.90
2023-08-11T17:38:59.533Z,3.70
2023-08-11T17:41:31.570Z,3.67
2023-08-11T17:44:05.413Z,4.15
2023-08-11T17:46:38.081Z,3.10
2023-08-11T17:49:10.377Z,3.40
2023-08-11T17:51:39.289Z,2.67
2023-08-11T17:54:11.073Z,3.88
2023-08-11T17:56:39.717Z,3.20
2023-08-11T17:59:08.420Z,3.35
2023-08-11T18:01:40.256Z,3.20
2023-08-11T18:04:12.259Z,3.55
2023-08-11T18:06:41.602Z,2.95
2023-08-11T18:09:13.740Z,3.00
2023-08-11T18:11:43.851Z,3.15
2023-08-11T18:14:13.324Z,3.22
2023-08-11T18:16:42.349Z,3.47
2023-08-11T18:19:16.235Z,3.55
2023-08-11T18:21:46.065Z,3.17
2023-08-11T18:24:15.952Z,3.90
2023-08-11T18:26:45.763Z,3.70
2023-08-11T18:29:16.496Z,3.33
2023-08-11T18:31:45.568Z,3.85
2023-08-11T18:50:25.273Z,4.03
2023-08-11T18:52:55.780Z,3.72
2023-08-11T18:55:28.080Z,3.45
2023-08-11T18:58:02.239Z,3.25
2023-08-11T19:00:32.566Z,3.20
2023-08-11T19:03:01.711Z,3.17
2023-08-11T19:05:33.006Z,3.72
2023-08-11T19:08:02.914Z,3.92
2023-08-11T19:10:32.000Z,3.45
2023-08-11T19:13:02.081Z,3.58
2023-08-11T19:15:31.524Z,3.63
2023-08-11T19:18:00.272Z,4.97
2023-08-11T19:20:30.792Z,4.07
2023-08-11T19:22:59.510Z,4.75
2023-08-11T19:25:31.073Z,3.95
2023-08-11T19:28:01.670Z,2.97
2023-08-11T19:30:30.803Z,5.30
2023-08-11T19:32:59.642Z,4.35
2023-08-11T19:35:28.195Z,3.85
2023-08-11T19:37:56.669Z,4.18
2023-08-11T19:40:25.198Z,4.13
2023-08-11T19:42:54.169Z,4.18
2023-08-11T19:45:22.721Z,3.80
2023-08-11T19:47:51.200Z,3.95
2023-08-11T19:50:19.764Z,4.00
2023-08-11T19:52:48.922Z,4.03
2023-08-11T19:55:17.926Z,4.22
2023-08-11T19:57:46.989Z,4.15
2023-08-11T20:00:16.324Z,3.63
2023-08-11T20:05:23.823Z,4.40
2023-08-11T20:07:51.831Z,4.18
2023-08-11T20:10:21.323Z,4.10
2023-08-11T20:12:49.547Z,3.72
2023-08-11T20:15:17.757Z,4.97
2023-08-11T20:17:45.998Z,4.15
2023-08-11T20:20:14.309Z,4.13
2023-08-11T20:22:42.596Z,4.13
2023-08-11T20:25:10.708Z,3.88
2023-08-11T20:27:38.816Z,4.57
2023-08-11T20:30:10.470Z,3.90
2023-08-11T20:32:38.533Z,3.85
2023-08-11T20:35:07.432Z,4.05
2023-08-11T20:37:35.230Z,3.50
2023-08-11T20:40:02.951Z,4.10
2023-08-11T20:42:31.656Z,3.58
2023-08-11T20:44:59.080Z,4.65
2023-08-11T20:47:26.751Z,4.15
2023-08-11T20:49:54.413Z,4.38
2023-08-11T20:52:21.808Z,3.75
2023-08-11T20:54:49.473Z,4.55
2023-08-11T20:57:17.208Z,3.95
2023-08-11T20:59:44.796Z,3.45
2023-08-11T21:02:12.461Z,4.25
2023-08-11T21:04:42.570Z,3.85
2023-08-11T21:07:10.625Z,4.63
2023-08-11T21:09:38.412Z,3.83
2023-08-11T21:12:06.110Z,3.67
2023-08-11T21:14:33.643Z,3.25
2023-08-11T21:17:03.274Z,4.35
2023-08-11T21:19:31.661Z,3.90
2023-08-11T21:21:59.254Z,4.10
2023-08-11T21:24:26.693Z,3.78
2023-08-11T21:26:54.308Z,4.35
2023-08-11T21:29:22.302Z,4.32
2023-08-11T21:31:49.799Z,4.18
2023-08-11T21:34:17.304Z,4.22
2023-08-11T21:36:44.797Z,3.67
2023-08-11T21:39:12.287Z,4.43
2023-08-11T21:41:40.135Z,3.90
2023-08-11T21:44:07.645Z,4.68
2023-08-11T21:46:35.108Z,3.97
2023-08-11T21:49:02.573Z,3.75
2023-08-11T21:51:29.948Z,3.80
2023-08-11T21:53:57.290Z,4.10
2023-08-11T21:56:24.710Z,4.45
2023-08-11T21:58:52.117Z,4.88
2023-08-11T22:01:19.906Z,3.88
2023-08-11T22:03:47.527Z,4.72
2023-08-11T22:06:15.433Z,3.80
2023-08-11T22:08:43.069Z,4.20
2023-08-11T22:11:21.996Z,4.03
2023-08-11T22:13:53.956Z,3.55
2023-08-11T22:16:21.353Z,3.95
2023-08-11T22:18:48.899Z,4.00
2023-08-11T22:21:16.297Z,4.57
2023-08-11T22:23:43.616Z,3.90
2023-08-11T22:26:10.999Z,4.32
2023-08-11T22:28:38.370Z,4.38
2023-08-11T22:31:05.789Z,4.10
2023-08-11T22:33:33.270Z,4.45
2023-08-11T22:36:00.752Z,3.78
2023-08-11T22:38:28.109Z,4.63
2023-08-11T22:40:55.583Z,4.43
2023-08-11T22:43:22.940Z,4.25
2023-08-11T22:45:50.369Z,4.00
2023-08-11T22:48:17.964Z,4.05
2023-08-11T22:50:45.410Z,3.58
2023-08-11T22:53:12.945Z,4.03
2023-08-11T22:55:40.424Z,3.72
2023-08-11T22:58:07.914Z,4.05
2023-08-11T23:00:35.294Z,4.05
2023-08-11T23:03:02.719Z,3.97
2023-08-11T23:05:30.145Z,3.50
2023-08-11T23:07:57.602Z,3.72
2023-08-11T23:10:24.990Z,4.05
2023-08-11T23:12:52.466Z,4.47
2023-08-11T23:15:20.528Z,4.30
2023-08-11T23:17:48.115Z,4.15
2023-08-11T23:20:16.139Z,4.13
2023-08-11T23:22:43.562Z,3.65
2023-08-11T23:25:11.062Z,3.88
2023-08-11T23:27:38.970Z,3.25
2023-08-11T23:30:07.071Z,3.67
2023-08-11T23:32:34.684Z,3.53
2023-08-11T23:35:02.856Z,3.47
2023-08-11T23:37:31.441Z,3.90
2023-08-11T23:39:59.183Z,4.25
2023-08-11T23:42:26.551Z,4.70
2023-08-11T23:44:53.928Z,4.00
2023-08-11T23:47:21.246Z,3.50
2023-08-11T23:49:48.626Z,3.90
2023-08-11T23:52:15.996Z,3.80
2023-08-11T23:54:52.490Z,3.60
2023-08-11T23:57:20.529Z,4.45
2023-08-11T23:59:47.946Z,4.15
